sensor_id;sensor_type;location;lat;lon;timestamp;temperature;humidity
41256;DHT22;26989;45.524;10.938;2022-11-02T00:00:52;12.20;99.90
41256;DHT22;26989;45.524;10.938;2022-11-02T00:03:19;12.20;99.90
41256;DHT22;26989;45.524;10.938;2022-11-02T00:05:46;12.10;99.90
41256;DHT22;26989;45.524;10.938;2022-11-02T00:08:13;12.10;99.90
41256;DHT22;26989;45.524;10.938;2022-11-02T00:10:40;12.00;99.90
41256;DHT22;26989;45.524;10.938;2022-11-02T00:13:06;12.10;99.90
41256;DHT22;26989;45.524;10.938;2022-11-02T00:15:34;12.00;99.90
41256;DHT22;26989;45.524;10.938;2022-11-02T00:18:05;12.10;99.90
41256;DHT22;26989;45.524;10.938;2022-11-02T00:20:35;12.00;99.90
41256;DHT22;26989;45.524;10.938;2022-11-02T00:23:02;12.00;99.90
41256;DHT22;26989;45.524;10.938;2022-11-02T00:25:30;12.00;99.90
41256;DHT22;26989;45.524;10.938;2022-11-02T00:27:57;12.00;99.90
41256;DHT22;26989;45.524;10.938;2022-11-02T00:30:24;12.00;99.90
41256;DHT22;26989;45.524;10.938;2022-11-02T00:32:51;12.10;99.90
41256;DHT22;26989;45.524;10.938;2022-11-02T00:35:17;12.10;99.90
41256;DHT22;26989;45.524;10.938;2022-11-02T00:37:44;12.10;99.90
41256;DHT22;26989;45.524;10.938;2022-11-02T00:40:11;12.10;99.90
41256;DHT22;26989;45.524;10.938;2022-11-02T00:42:38;12.10;99.90
41256;DHT22;26989;45.524;10.938;2022-11-02T00:45:05;12.10;99.90
41256;DHT22;26989;45.524;10.938;2022-11-02T00:47:33;12.10;99.90
41256;DHT22;26989;45.524;10.938;2022-11-02T00:50:00;12.10;99.90
41256;DHT22;26989;45.524;10.938;2022-11-02T00:52:27;12.20;99.90
41256;DHT22;26989;45.524;10.938;2022-11-02T00:54:53;12.20;99.90
41256;DHT22;26989;45.524;10.938;2022-11-02T00:57:20;12.20;99.90
41256;DHT22;26989;45.524;10.938;2022-11-02T00:59:47;12.10;99.90
41256;DHT22;26989;45.524;10.938;2022-11-02T01:02:14;12.10;99.90
41256;DHT22;26989;45.524;10.938;2022-11-02T01:04:41;12.20;99.90
41256;DHT22;26989;45.524;10.938;2022-11-02T01:07:07;12.10;99.90
41256;DHT22;26989;45.524;10.938;2022-11-02T01:09:34;12.10;99.90
41256;DHT22;26989;45.524;10.938;2022-11-02T01:12:01;12.20;99.90
41256;DHT22;26989;45.524;10.938;2022-11-02T01:14:28;12.20;99.90
41256;DHT22;26989;45.524;10.938;2022-11-02T01:16:55;12.20;99.90
41256;DHT22;26989;45.524;10.938;2022-11-02T01:19:24;12.20;99.90
41256;DHT22;26989;45.524;10.938;2022-11-02T01:21:51;12.20;99.90
41256;DHT22;26989;45.524;10.938;2022-11-02T01:24:17;12.10;99.90
41256;DHT22;26989;45.524;10.938;2022-11-02T01:26:44;12.10;99.90
41256;DHT22;26989;45.524;10.938;2022-11-02T01:29:11;12.10;99.90
41256;DHT22;26989;45.524;10.938;2022-11-02T01:31:38;12.10;99.90
41256;DHT22;26989;45.524;10.938;2022-11-02T01:34:05;11.90;99.90
41256;DHT22;26989;45.524;10.938;2022-11-02T01:36:31;11.90;99.90
41256;DHT22;26989;45.524;10.938;2022-11-02T01:38:58;11.70;99.90
41256;DHT22;26989;45.524;10.938;2022-11-02T01:41:25;11.70;99.90
41256;DHT22;26989;45.524;10.938;2022-11-02T01:43:55;11.60;99.90
41256;DHT22;26989;45.524;10.938;2022-11-02T01:46:36;11.40;99.90
41256;DHT22;26989;45.524;10.938;2022-11-02T01:49:08;11.30;99.90
41256;DHT22;26989;45.524;10.938;2022-11-02T01:51:49;11.40;99.90
41256;DHT22;26989;45.524;10.938;2022-11-02T01:54:21;11.30;99.90
41256;DHT22;26989;45.524;10.938;2022-11-02T01:56:52;11.30;99.90
41256;DHT22;26989;45.524;10.938;2022-11-02T01:59:27;11.30;99.90
41256;DHT22;26989;45.524;10.938;2022-11-02T02:01:55;11.20;99.90
41256;DHT22;26989;45.524;10.938;2022-11-02T02:04:22;11.20;99.90
41256;DHT22;26989;45.524;10.938;2022-11-02T02:06:50;11.10;99.90
41256;DHT22;26989;45.524;10.938;2022-11-02T02:09:18;11.20;99.90
41256;DHT22;26989;45.524;10.938;2022-11-02T02:11:46;11.10;99.90
41256;DHT22;26989;45.524;10.938;2022-11-02T02:14:15;11.10;99.90
41256;DHT22;26989;45.524;10.938;2022-11-02T02:28:53;10.90;99.90
41256;DHT22;26989;45.524;10.938;2022-11-02T02:34:00;10.80;99.90
41256;DHT22;26989;45.524;10.938;2022-11-02T02:39:16;10.80;99.90
41256;DHT22;26989;45.524;10.938;2022-11-02T02:42:33;10.90;99.90
41256;DHT22;26989;45.524;10.938;2022-11-02T02:44:44;11.00;99.90
41256;DHT22;26989;45.524;10.938;2022-11-02T02:47:16;11.00;99.90
41256;DHT22;26989;45.524;10.938;2022-11-02T02:49:55;10.90;99.90
41256;DHT22;26989;45.524;10.938;2022-11-02T02:52:25;10.90;99.90
41256;DHT22;26989;45.524;10.938;2022-11-02T02:54:57;10.90;99.90
41256;DHT22;26989;45.524;10.938;2022-11-02T02:57:27;10.90;99.90
41256;DHT22;26989;45.524;10.938;2022-11-02T02:59:56;11.00;99.90
41256;DHT22;26989;45.524;10.938;2022-11-02T03:02:32;11.10;99.90
41256;DHT22;26989;45.524;10.938;2022-11-02T03:04:59;11.20;99.90
41256;DHT22;26989;45.524;10.938;2022-11-02T03:07:29;11.30;99.90
41256;DHT22;26989;45.524;10.938;2022-11-02T03:12:45;11.30;99.90
41256;DHT22;26989;45.524;10.938;2022-11-02T03:18:05;11.30;99.90
41256;DHT22;26989;45.524;10.938;2022-11-02T03:23:54;11.40;99.90
41256;DHT22;26989;45.524;10.938;2022-11-02T03:26:26;11.50;99.90
41256;DHT22;26989;45.524;10.938;2022-11-02T03:36:47;11.70;99.90
41256;DHT22;26989;45.524;10.938;2022-11-02T03:39:19;11.60;99.90
41256;DHT22;26989;45.524;10.938;2022-11-02T03:41:47;11.50;99.90
41256;DHT22;26989;45.524;10.938;2022-11-02T03:44:19;11.50;99.90
41256;DHT22;26989;45.524;10.938;2022-11-02T03:46:51;11.40;99.90
41256;DHT22;26989;45.524;10.938;2022-11-02T03:49:21;11.30;99.90
41256;DHT22;26989;45.524;10.938;2022-11-02T03:51:49;11.10;99.90
41256;DHT22;26989;45.524;10.938;2022-11-02T03:56:47;11.00;99.90
41256;DHT22;26989;45.524;10.938;2022-11-02T03:59:15;10.90;99.90
41256;DHT22;26989;45.524;10.938;2022-11-02T04:01:44;10.90;99.90
41256;DHT22;26989;45.524;10.938;2022-11-02T04:04:12;10.80;99.90
41256;DHT22;26989;45.524;10.938;2022-11-02T04:06:40;10.90;99.90
41256;DHT22;26989;45.524;10.938;2022-11-02T04:09:07;10.90;99.90
41256;DHT22;26989;45.524;10.938;2022-11-02T04:11:35;10.90;99.90
41256;DHT22;26989;45.524;10.938;2022-11-02T04:14:21;10.80;99.90
41256;DHT22;26989;45.524;10.938;2022-11-02T04:17:08;10.90;99.90
41256;DHT22;26989;45.524;10.938;2022-11-02T04:19:54;10.90;99.90
41256;DHT22;26989;45.524;10.938;2022-11-02T04:22:22;10.80;99.90
41256;DHT22;26989;45.524;10.938;2022-11-02T04:25:13;10.80;99.90
41256;DHT22;26989;45.524;10.938;2022-11-02T04:27:50;10.60;99.90
41256;DHT22;26989;45.524;10.938;2022-11-02T04:30:19;10.40;99.90
41256;DHT22;26989;45.524;10.938;2022-11-02T04:32:48;10.30;99.90
41256;DHT22;26989;45.524;10.938;2022-11-02T04:35:35;10.40;99.90
41256;DHT22;26989;45.524;10.938;2022-11-02T04:38:03;10.40;99.90
41256;DHT22;26989;45.524;10.938;2022-11-02T04:40:48;10.40;99.90
41256;DHT22;26989;45.524;10.938;2022-11-02T04:43:35;10.40;99.90
41256;DHT22;26989;45.524;10.938;2022-11-02T04:46:02;10.30;99.90
41256;DHT22;26989;45.524;10.938;2022-11-02T04:48:29;10.20;99.90
41256;DHT22;26989;45.524;10.938;2022-11-02T04:50:57;10.20;99.90
41256;DHT22;26989;45.524;10.938;2022-11-02T04:53:24;10.20;99.90
41256;DHT22;26989;45.524;10.938;2022-11-02T04:55:50;10.20;99.90
41256;DHT22;26989;45.524;10.938;2022-11-02T04:58:17;10.20;99.90
41256;DHT22;26989;45.524;10.938;2022-11-02T05:00:44;10.00;99.90
41256;DHT22;26989;45.524;10.938;2022-11-02T05:03:11;10.00;99.90
41256;DHT22;26989;45.524;10.938;2022-11-02T05:05:38;9.90;99.90
41256;DHT22;26989;45.524;10.938;2022-11-02T05:08:05;10.00;99.90
41256;DHT22;26989;45.524;10.938;2022-11-02T05:10:32;9.90;99.90
41256;DHT22;26989;45.524;10.938;2022-11-02T05:12:59;10.00;99.90
41256;DHT22;26989;45.524;10.938;2022-11-02T05:15:26;10.00;99.90
41256;DHT22;26989;45.524;10.938;2022-11-02T05:17:53;10.00;99.90
41256;DHT22;26989;45.524;10.938;2022-11-02T05:20:20;10.00;99.90
41256;DHT22;26989;45.524;10.938;2022-11-02T05:22:47;10.00;99.90
41256;DHT22;26989;45.524;10.938;2022-11-02T05:25:14;10.00;99.90
41256;DHT22;26989;45.524;10.938;2022-11-02T05:27:40;9.90;99.90
41256;DHT22;26989;45.524;10.938;2022-11-02T05:30:08;9.70;99.90
41256;DHT22;26989;45.524;10.938;2022-11-02T05:32:34;9.70;99.90
41256;DHT22;26989;45.524;10.938;2022-11-02T05:35:01;9.70;99.90
41256;DHT22;26989;45.524;10.938;2022-11-02T05:37:28;9.70;99.90
41256;DHT22;26989;45.524;10.938;2022-11-02T05:39:55;9.70;99.90
41256;DHT22;26989;45.524;10.938;2022-11-02T05:42:24;9.90;99.90
41256;DHT22;26989;45.524;10.938;2022-11-02T05:44:51;9.90;99.90
41256;DHT22;26989;45.524;10.938;2022-11-02T05:47:18;10.10;99.90
41256;DHT22;26989;45.524;10.938;2022-11-02T05:49:44;10.20;99.90
41256;DHT22;26989;45.524;10.938;2022-11-02T05:52:11;10.20;99.90
41256;DHT22;26989;45.524;10.938;2022-11-02T05:54:38;10.10;99.90
41256;DHT22;26989;45.524;10.938;2022-11-02T05:57:05;10.10;99.90
41256;DHT22;26989;45.524;10.938;2022-11-02T05:59:32;10.10;99.90
41256;DHT22;26989;45.524;10.938;2022-11-02T06:01:58;10.20;99.90
41256;DHT22;26989;45.524;10.938;2022-11-02T06:04:25;10.30;99.90
41256;DHT22;26989;45.524;10.938;2022-11-02T06:06:52;10.30;99.90
41256;DHT22;26989;45.524;10.938;2022-11-02T06:09:19;10.30;99.90
41256;DHT22;26989;45.524;10.938;2022-11-02T06:11:45;10.40;99.90
41256;DHT22;26989;45.524;10.938;2022-11-02T06:14:12;10.40;99.90
41256;DHT22;26989;45.524;10.938;2022-11-02T06:16:39;10.50;99.90
41256;DHT22;26989;45.524;10.938;2022-11-02T06:19:06;10.60;99.90
41256;DHT22;26989;45.524;10.938;2022-11-02T06:21:33;10.50;99.90
41256;DHT22;26989;45.524;10.938;2022-11-02T06:23:59;10.60;99.90
41256;DHT22;26989;45.524;10.938;2022-11-02T06:26:26;10.70;99.90
41256;DHT22;26989;45.524;10.938;2022-11-02T06:28:53;10.80;99.90
41256;DHT22;26989;45.524;10.938;2022-11-02T06:31:20;10.90;99.90
41256;DHT22;26989;45.524;10.938;2022-11-02T06:33:46;10.90;99.90
41256;DHT22;26989;45.524;10.938;2022-11-02T06:36:13;10.80;99.90
41256;DHT22;26989;45.524;10.938;2022-11-02T06:38:40;10.80;99.90
41256;DHT22;26989;45.524;10.938;2022-11-02T06:41:07;10.80;99.90
41256;DHT22;26989;45.524;10.938;2022-11-02T06:43:34;11.00;99.90
41256;DHT22;26989;45.524;10.938;2022-11-02T06:46:04;11.10;99.90
41256;DHT22;26989;45.524;10.938;2022-11-02T06:48:31;11.40;99.90
41256;DHT22;26989;45.524;10.938;2022-11-02T06:51:02;11.50;99.90
41256;DHT22;26989;45.524;10.938;2022-11-02T06:53:30;11.80;99.90
41256;DHT22;26989;45.524;10.938;2022-11-02T06:55:58;11.90;99.90
41256;DHT22;26989;45.524;10.938;2022-11-02T06:58:25;12.00;99.90
41256;DHT22;26989;45.524;10.938;2022-11-02T07:01:00;12.10;99.90
41256;DHT22;26989;45.524;10.938;2022-11-02T07:03:28;12.30;99.90
41256;DHT22;26989;45.524;10.938;2022-11-02T07:05:56;12.60;99.90
41256;DHT22;26989;45.524;10.938;2022-11-02T07:08:23;12.60;99.90
41256;DHT22;26989;45.524;10.938;2022-11-02T07:10:50;12.60;99.90
41256;DHT22;26989;45.524;10.938;2022-11-02T07:13:17;12.60;99.90
41256;DHT22;26989;45.524;10.938;2022-11-02T07:15:44;12.60;99.90
41256;DHT22;26989;45.524;10.938;2022-11-02T07:18:11;12.60;99.90
41256;DHT22;26989;45.524;10.938;2022-11-02T07:20:38;12.50;99.90
41256;DHT22;26989;45.524;10.938;2022-11-02T07:23:05;12.40;99.90
41256;DHT22;26989;45.524;10.938;2022-11-02T07:25:33;12.30;99.90
41256;DHT22;26989;45.524;10.938;2022-11-02T07:28:01;12.10;99.90
41256;DHT22;26989;45.524;10.938;2022-11-02T07:30:29;12.00;99.90
41256;DHT22;26989;45.524;10.938;2022-11-02T07:32:56;11.90;99.90
41256;DHT22;26989;45.524;10.938;2022-11-02T07:35:23;11.70;99.90
41256;DHT22;26989;45.524;10.938;2022-11-02T07:38:01;11.50;99.90
41256;DHT22;26989;45.524;10.938;2022-11-02T07:40:29;11.50;99.90
41256;DHT22;26989;45.524;10.938;2022-11-02T07:42:56;11.70;99.90
41256;DHT22;26989;45.524;10.938;2022-11-02T07:45:24;11.80;99.90
41256;DHT22;26989;45.524;10.938;2022-11-02T07:47:51;12.00;99.90
41256;DHT22;26989;45.524;10.938;2022-11-02T07:50:20;12.20;99.90
41256;DHT22;26989;45.524;10.938;2022-11-02T07:52:52;12.30;99.90
41256;DHT22;26989;45.524;10.938;2022-11-02T07:55:20;12.30;99.90
41256;DHT22;26989;45.524;10.938;2022-11-02T07:58:02;12.40;99.90
41256;DHT22;26989;45.524;10.938;2022-11-02T08:00:31;12.50;99.90
41256;DHT22;26989;45.524;10.938;2022-11-02T08:03:00;12.60;99.90
41256;DHT22;26989;45.524;10.938;2022-11-02T08:05:29;12.70;99.90
41256;DHT22;26989;45.524;10.938;2022-11-02T08:08:07;12.90;99.90
41256;DHT22;26989;45.524;10.938;2022-11-02T08:10:35;13.10;99.90
41256;DHT22;26989;45.524;10.938;2022-11-02T08:13:07;13.30;99.90
41256;DHT22;26989;45.524;10.938;2022-11-02T08:15:35;13.50;99.90
41256;DHT22;26989;45.524;10.938;2022-11-02T08:18:08;13.60;99.90
41256;DHT22;26989;45.524;10.938;2022-11-02T08:20:37;13.70;99.90
41256;DHT22;26989;45.524;10.938;2022-11-02T08:23:04;13.80;99.90
41256;DHT22;26989;45.524;10.938;2022-11-02T08:25:34;13.90;99.90
41256;DHT22;26989;45.524;10.938;2022-11-02T08:28:01;14.00;99.90
41256;DHT22;26989;45.524;10.938;2022-11-02T08:30:30;14.10;99.90
41256;DHT22;26989;45.524;10.938;2022-11-02T08:33:12;14.30;99.90
41256;DHT22;26989;45.524;10.938;2022-11-02T08:35:42;14.40;99.90
41256;DHT22;26989;45.524;10.938;2022-11-02T08:38:09;14.60;99.90
41256;DHT22;26989;45.524;10.938;2022-11-02T08:40:36;14.70;99.90
41256;DHT22;26989;45.524;10.938;2022-11-02T08:43:09;14.70;99.90
41256;DHT22;26989;45.524;10.938;2022-11-02T08:45:38;14.90;99.90
41256;DHT22;26989;45.524;10.938;2022-11-02T08:48:26;15.00;99.90
41256;DHT22;26989;45.524;10.938;2022-11-02T08:50:53;15.10;99.90
41256;DHT22;26989;45.524;10.938;2022-11-02T08:53:22;15.20;99.90
41256;DHT22;26989;45.524;10.938;2022-11-02T08:55:48;15.40;99.90
41256;DHT22;26989;45.524;10.938;2022-11-02T08:58:15;15.50;99.90
41256;DHT22;26989;45.524;10.938;2022-11-02T09:00:42;15.50;99.90
41256;DHT22;26989;45.524;10.938;2022-11-02T09:03:11;15.50;99.90
41256;DHT22;26989;45.524;10.938;2022-11-02T09:05:40;15.80;99.90
41256;DHT22;26989;45.524;10.938;2022-11-02T09:08:19;15.90;99.90
41256;DHT22;26989;45.524;10.938;2022-11-02T09:10:49;15.90;99.90
41256;DHT22;26989;45.524;10.938;2022-11-02T09:13:17;16.00;99.90
41256;DHT22;26989;45.524;10.938;2022-11-02T09:15:49;16.00;99.90
41256;DHT22;26989;45.524;10.938;2022-11-02T09:18:16;16.00;99.90
41256;DHT22;26989;45.524;10.938;2022-11-02T09:20:42;16.20;99.90
41256;DHT22;26989;45.524;10.938;2022-11-02T09:23:09;16.40;99.90
41256;DHT22;26989;45.524;10.938;2022-11-02T09:25:36;16.50;99.90
41256;DHT22;26989;45.524;10.938;2022-11-02T09:28:03;16.60;99.90
41256;DHT22;26989;45.524;10.938;2022-11-02T09:30:30;16.70;99.90
41256;DHT22;26989;45.524;10.938;2022-11-02T09:32:59;16.80;99.90
41256;DHT22;26989;45.524;10.938;2022-11-02T09:35:30;17.00;99.90
41256;DHT22;26989;45.524;10.938;2022-11-02T09:37:56;17.20;99.90
41256;DHT22;26989;45.524;10.938;2022-11-02T09:40:26;17.30;99.90
41256;DHT22;26989;45.524;10.938;2022-11-02T09:46:02;17.40;99.90
41256;DHT22;26989;45.524;10.938;2022-11-02T09:48:32;17.50;99.90
41256;DHT22;26989;45.524;10.938;2022-11-02T09:51:12;17.40;99.90
41256;DHT22;26989;45.524;10.938;2022-11-02T09:56:26;17.30;99.90
41256;DHT22;26989;45.524;10.938;2022-11-02T10:04:47;17.10;99.90
41256;DHT22;26989;45.524;10.938;2022-11-02T10:10:26;17.20;99.90
41256;DHT22;26989;45.524;10.938;2022-11-02T10:15:55;17.50;99.90
41256;DHT22;26989;45.524;10.938;2022-11-02T10:18:24;17.80;99.90
41256;DHT22;26989;45.524;10.938;2022-11-02T10:20:58;17.70;99.90
41256;DHT22;26989;45.524;10.938;2022-11-02T10:23:40;17.80;99.90
41256;DHT22;26989;45.524;10.938;2022-11-02T10:26:16;17.90;99.90
41256;DHT22;26989;45.524;10.938;2022-11-02T10:28:47;17.70;99.90
41256;DHT22;26989;45.524;10.938;2022-11-02T10:31:44;17.60;99.90
41256;DHT22;26989;45.524;10.938;2022-11-02T10:34:15;17.80;99.90
41256;DHT22;26989;45.524;10.938;2022-11-02T10:39:46;17.90;99.90
41256;DHT22;26989;45.524;10.938;2022-11-02T10:45:31;17.70;99.90
41256;DHT22;26989;45.524;10.938;2022-11-02T10:51:22;17.80;99.90
41256;DHT22;26989;45.524;10.938;2022-11-02T10:53:51;17.70;99.90
41256;DHT22;26989;45.524;10.938;2022-11-02T10:56:37;17.60;99.90
41256;DHT22;26989;45.524;10.938;2022-11-02T10:59:16;17.70;99.90
41256;DHT22;26989;45.524;10.938;2022-11-02T11:02:04;17.80;99.90
41256;DHT22;26989;45.524;10.938;2022-11-02T11:04:33;18.00;99.90
41256;DHT22;26989;45.524;10.938;2022-11-02T11:07:12;18.10;99.90
41256;DHT22;26989;45.524;10.938;2022-11-02T11:09:49;18.20;99.90
41256;DHT22;26989;45.524;10.938;2022-11-02T11:12:20;18.10;99.90
41256;DHT22;26989;45.524;10.938;2022-11-02T11:14:54;18.00;99.90
41256;DHT22;26989;45.524;10.938;2022-11-02T11:17:42;18.10;99.90
41256;DHT22;26989;45.524;10.938;2022-11-02T11:20:35;18.00;99.90
41256;DHT22;26989;45.524;10.938;2022-11-02T11:23:18;17.90;99.90
41256;DHT22;26989;45.524;10.938;2022-11-02T11:26:25;17.90;99.90
41256;DHT22;26989;45.524;10.938;2022-11-02T11:28:56;17.90;99.90
41256;DHT22;26989;45.524;10.938;2022-11-02T11:31:23;17.80;99.90
41256;DHT22;26989;45.524;10.938;2022-11-02T11:33:53;17.60;99.90
41256;DHT22;26989;45.524;10.938;2022-11-02T11:36:22;17.60;99.90
41256;DHT22;26989;45.524;10.938;2022-11-02T11:39:01;17.70;99.90
41256;DHT22;26989;45.524;10.938;2022-11-02T11:41:28;17.70;99.90
41256;DHT22;26989;45.524;10.938;2022-11-02T11:43:57;17.60;99.90
41256;DHT22;26989;45.524;10.938;2022-11-02T11:46:38;17.70;99.90
41256;DHT22;26989;45.524;10.938;2022-11-02T11:49:22;17.90;99.90
41256;DHT22;26989;45.524;10.938;2022-11-02T11:52:18;18.00;99.90
41256;DHT22;26989;45.524;10.938;2022-11-02T11:54:54;18.00;99.90
41256;DHT22;26989;45.524;10.938;2022-11-02T11:57:32;18.00;99.90
41256;DHT22;26989;45.524;10.938;2022-11-02T12:00:01;18.00;99.90
41256;DHT22;26989;45.524;10.938;2022-11-02T12:02:35;17.90;99.90
41256;DHT22;26989;45.524;10.938;2022-11-02T12:05:15;18.00;99.90
41256;DHT22;26989;45.524;10.938;2022-11-02T12:16:19;17.80;99.90
41256;DHT22;26989;45.524;10.938;2022-11-02T12:30:21;17.30;99.90
41256;DHT22;26989;45.524;10.938;2022-11-02T12:33:01;17.30;99.90
41256;DHT22;26989;45.524;10.938;2022-11-02T12:44:34;17.20;99.90
41256;DHT22;26989;45.524;10.938;2022-11-02T12:49:54;17.10;99.90
41256;DHT22;26989;45.524;10.938;2022-11-02T12:55:01;17.10;99.90
41256;DHT22;26989;45.524;10.938;2022-11-02T12:57:33;17.10;99.90
41256;DHT22;26989;45.524;10.938;2022-11-02T13:00:16;17.00;99.90
41256;DHT22;26989;45.524;10.938;2022-11-02T13:05:19;16.80;99.90
41256;DHT22;26989;45.524;10.938;2022-11-02T13:07:54;17.10;99.90
41256;DHT22;26989;45.524;10.938;2022-11-02T13:10:31;16.80;99.90
41256;DHT22;26989;45.524;10.938;2022-11-02T13:13:02;16.90;99.90
41256;DHT22;26989;45.524;10.938;2022-11-02T13:15:33;17.10;99.90
41256;DHT22;26989;45.524;10.938;2022-11-02T13:18:23;17.20;99.90
41256;DHT22;26989;45.524;10.938;2022-11-02T13:20:52;17.20;99.90
41256;DHT22;26989;45.524;10.938;2022-11-02T13:29:12;17.40;99.90
41256;DHT22;26989;45.524;10.938;2022-11-02T13:34:14;17.30;99.90
41256;DHT22;26989;45.524;10.938;2022-11-02T13:36:43;17.30;99.90
41256;DHT22;26989;45.524;10.938;2022-11-02T13:39:36;17.30;99.90
41256;DHT22;26989;45.524;10.938;2022-11-02T13:42:21;17.30;99.90
41256;DHT22;26989;45.524;10.938;2022-11-02T13:48:09;17.10;99.90
41256;DHT22;26989;45.524;10.938;2022-11-02T13:50:47;17.00;99.90
41256;DHT22;26989;45.524;10.938;2022-11-02T13:53:49;17.00;99.90
41256;DHT22;26989;45.524;10.938;2022-11-02T13:56:11;16.90;99.90
41256;DHT22;26989;45.524;10.938;2022-11-02T13:58:52;16.70;99.90
41256;DHT22;26989;45.524;10.938;2022-11-02T14:01:22;16.70;99.90
41256;DHT22;26989;45.524;10.938;2022-11-02T14:03:54;16.70;99.90
41256;DHT22;26989;45.524;10.938;2022-11-02T14:06:29;16.60;99.90
41256;DHT22;26989;45.524;10.938;2022-11-02T14:09:00;16.60;99.90
41256;DHT22;26989;45.524;10.938;2022-11-02T14:16:43;16.50;99.90
41256;DHT22;26989;45.524;10.938;2022-11-02T14:27:11;16.50;99.90
41256;DHT22;26989;45.524;10.938;2022-11-02T14:29:52;16.50;99.90
41256;DHT22;26989;45.524;10.938;2022-11-02T14:48:14;16.20;99.90
41256;DHT22;26989;45.524;10.938;2022-11-02T14:51:25;16.20;99.90
41256;DHT22;26989;45.524;10.938;2022-11-02T14:53:59;16.10;99.90
41256;DHT22;26989;45.524;10.938;2022-11-02T14:59:21;16.00;99.90
41256;DHT22;26989;45.524;10.938;2022-11-02T15:02:05;16.00;99.90
41256;DHT22;26989;45.524;10.938;2022-11-02T15:04:34;15.90;99.90
41256;DHT22;26989;45.524;10.938;2022-11-02T15:07:03;16.00;99.90
41256;DHT22;26989;45.524;10.938;2022-11-02T15:15:14;15.80;99.90
41256;DHT22;26989;45.524;10.938;2022-11-02T15:22:43;15.80;99.90
41256;DHT22;26989;45.524;10.938;2022-11-02T15:25:20;15.70;99.90
41256;DHT22;26989;45.524;10.938;2022-11-02T15:27:51;15.70;99.90
41256;DHT22;26989;45.524;10.938;2022-11-02T15:30:21;15.70;99.90
41256;DHT22;26989;45.524;10.938;2022-11-02T15:32:58;15.70;99.90
41256;DHT22;26989;45.524;10.938;2022-11-02T15:35:34;15.60;99.90
41256;DHT22;26989;45.524;10.938;2022-11-02T15:38:05;15.60;99.90
41256;DHT22;26989;45.524;10.938;2022-11-02T15:46:29;15.40;99.90
41256;DHT22;26989;45.524;10.938;2022-11-02T15:51:45;15.20;99.90
41256;DHT22;26989;45.524;10.938;2022-11-02T15:57:40;15.00;99.90
41256;DHT22;26989;45.524;10.938;2022-11-02T16:00:21;15.00;99.90
41256;DHT22;26989;45.524;10.938;2022-11-02T16:03:01;15.00;99.90
41256;DHT22;26989;45.524;10.938;2022-11-02T16:05:32;15.00;99.90
41256;DHT22;26989;45.524;10.938;2022-11-02T16:08:00;15.00;99.90
41256;DHT22;26989;45.524;10.938;2022-11-02T16:10:42;15.00;99.90
41256;DHT22;26989;45.524;10.938;2022-11-02T16:15:35;14.90;99.90
41256;DHT22;26989;45.524;10.938;2022-11-02T16:18:02;14.90;99.90
41256;DHT22;26989;45.524;10.938;2022-11-02T16:20:33;14.90;99.90
41256;DHT22;26989;45.524;10.938;2022-11-02T16:23:05;14.90;99.90
41256;DHT22;26989;45.524;10.938;2022-11-02T16:25:35;15.00;99.90
41256;DHT22;26989;45.524;10.938;2022-11-02T16:31:23;14.90;99.90
41256;DHT22;26989;45.524;10.938;2022-11-02T16:33:58;14.90;99.90
41256;DHT22;26989;45.524;10.938;2022-11-02T16:36:34;14.80;99.90
41256;DHT22;26989;45.524;10.938;2022-11-02T16:39:05;14.90;99.90
41256;DHT22;26989;45.524;10.938;2022-11-02T16:41:33;14.80;99.90
41256;DHT22;26989;45.524;10.938;2022-11-02T16:44:30;14.70;99.90
41256;DHT22;26989;45.524;10.938;2022-11-02T16:47:15;14.70;99.90
41256;DHT22;26989;45.524;10.938;2022-11-02T16:52:20;14.70;99.90
41256;DHT22;26989;45.524;10.938;2022-11-02T16:54:47;14.70;99.90
41256;DHT22;26989;45.524;10.938;2022-11-02T16:57:24;14.80;99.90
41256;DHT22;26989;45.524;10.938;2022-11-02T16:59:55;14.80;99.90
41256;DHT22;26989;45.524;10.938;2022-11-02T17:02:38;14.70;99.90
41256;DHT22;26989;45.524;10.938;2022-11-02T17:05:35;14.80;99.90
41256;DHT22;26989;45.524;10.938;2022-11-02T17:08:17;14.80;99.90
41256;DHT22;26989;45.524;10.938;2022-11-02T17:10:47;14.70;99.90
41256;DHT22;26989;45.524;10.938;2022-11-02T17:13:19;14.70;99.90
41256;DHT22;26989;45.524;10.938;2022-11-02T17:15:48;14.70;99.90
41256;DHT22;26989;45.524;10.938;2022-11-02T17:20:47;14.60;99.90
41256;DHT22;26989;45.524;10.938;2022-11-02T17:23:34;14.60;99.90
41256;DHT22;26989;45.524;10.938;2022-11-02T17:29:02;14.40;99.90
41256;DHT22;26989;45.524;10.938;2022-11-02T17:31:53;14.30;99.90
41256;DHT22;26989;45.524;10.938;2022-11-02T17:34:22;14.30;99.90
41256;DHT22;26989;45.524;10.938;2022-11-02T17:36:49;14.30;99.90
41256;DHT22;26989;45.524;10.938;2022-11-02T17:39:18;14.20;99.90
41256;DHT22;26989;45.524;10.938;2022-11-02T17:41:55;14.20;99.90
41256;DHT22;26989;45.524;10.938;2022-11-02T17:44:42;14.20;99.90
41256;DHT22;26989;45.524;10.938;2022-11-02T17:47:12;14.20;99.90
41256;DHT22;26989;45.524;10.938;2022-11-02T17:49:39;14.10;99.90
41256;DHT22;26989;45.524;10.938;2022-11-02T17:52:07;14.10;99.90
41256;DHT22;26989;45.524;10.938;2022-11-02T17:54:37;14.10;99.90
41256;DHT22;26989;45.524;10.938;2022-11-02T17:57:10;14.10;99.90
41256;DHT22;26989;45.524;10.938;2022-11-02T17:59:38;14.10;99.90
41256;DHT22;26989;45.524;10.938;2022-11-02T18:02:12;14.20;99.90
41256;DHT22;26989;45.524;10.938;2022-11-02T18:04:40;14.20;99.90
41256;DHT22;26989;45.524;10.938;2022-11-02T18:07:06;14.20;99.90
41256;DHT22;26989;45.524;10.938;2022-11-02T18:09:33;14.10;99.90
41256;DHT22;26989;45.524;10.938;2022-11-02T18:12:00;14.20;99.90
41256;DHT22;26989;45.524;10.938;2022-11-02T18:14:27;14.20;99.90
41256;DHT22;26989;45.524;10.938;2022-11-02T18:16:53;14.20;99.90
41256;DHT22;26989;45.524;10.938;2022-11-02T18:19:20;14.20;99.90
41256;DHT22;26989;45.524;10.938;2022-11-02T18:21:47;14.30;99.90
41256;DHT22;26989;45.524;10.938;2022-11-02T18:24:14;14.30;99.90
41256;DHT22;26989;45.524;10.938;2022-11-02T18:26:40;14.30;99.90
41256;DHT22;26989;45.524;10.938;2022-11-02T18:29:12;14.30;99.90
41256;DHT22;26989;45.524;10.938;2022-11-02T18:31:39;14.30;99.90
41256;DHT22;26989;45.524;10.938;2022-11-02T18:34:06;14.30;99.90
41256;DHT22;26989;45.524;10.938;2022-11-02T18:36:36;14.20;99.90
41256;DHT22;26989;45.524;10.938;2022-11-02T18:39:03;14.20;99.90
41256;DHT22;26989;45.524;10.938;2022-11-02T18:41:30;14.20;99.90
41256;DHT22;26989;45.524;10.938;2022-11-02T18:44:01;14.20;99.90